createdAt,value
2023-02-11T00:04:48.044Z,3.03
2023-02-11T00:09:50.081Z,2.95
2023-02-11T00:14:52.545Z,2.85
2023-02-11T00:19:54.839Z,2.80
2023-02-11T00:24:57.249Z,2.70
2023-02-11T00:30:00.756Z,2.61
2023-02-11T00:35:05.411Z,2.57
2023-02-11T00:40:07.718Z,2.51
2023-02-11T00:45:10.042Z,2.60
2023-02-11T00:50:12.199Z,2.50
2023-02-11T00:55:14.474Z,2.48
2023-02-11T01:00:16.740Z,2.25
2023-02-11T01:05:20.548Z,2.37
2023-02-11T01:10:23.637Z,2.37
2023-02-11T01:15:25.822Z,2.28
2023-02-11T01:20:28.566Z,2.27
2023-02-11T01:25:31.875Z,2.15
2023-02-11T01:30:33.942Z,2.28
2023-02-11T01:35:35.955Z,2.16
2023-02-11T01:40:38.248Z,2.16
2023-02-11T01:45:43.117Z,2.14
2023-02-11T01:50:48.089Z,2.06
2023-02-11T01:56:09.299Z,2.03
2023-02-11T02:06:19.994Z,1.93
2023-02-11T02:11:21.941Z,1.83
2023-02-11T02:16:30.231Z,1.78
2023-02-11T02:21:57.381Z,1.78
2023-02-11T02:27:26.587Z,1.74
2023-02-11T02:33:20.579Z,1.71
2023-02-11T02:38:49.200Z,1.70
2023-02-11T02:43:51.545Z,1.64
2023-02-11T02:48:54.986Z,1.62
2023-02-11T02:54:24.413Z,1.55
2023-02-11T02:59:44.565Z,1.52
2023-02-11T03:04:53.870Z,1.44
2023-02-11T03:10:02.025Z,1.44
2023-02-11T03:15:05.670Z,1.45
2023-02-11T03:20:10.830Z,1.44
2023-02-11T03:25:12.914Z,1.40
2023-02-11T03:30:28.932Z,1.40
2023-02-11T03:35:40.230Z,1.34
2023-02-11T03:40:46.324Z,1.27
2023-02-11T03:45:50.032Z,1.24
2023-02-11T03:50:52.772Z,1.18
2023-02-11T03:55:55.464Z,1.10
2023-02-11T04:00:57.568Z,1.14
2023-02-11T04:05:59.659Z,1.10
2023-02-11T04:11:01.692Z,1.08
2023-02-11T04:16:03.986Z,1.07
2023-02-11T04:21:07.225Z,0.97
2023-02-11T04:26:09.197Z,0.99
2023-02-11T04:31:12.197Z,0.97
2023-02-11T04:36:14.172Z,0.96
2023-02-11T04:41:16.276Z,1.02
2023-02-11T04:46:18.245Z,0.95
2023-02-11T04:51:20.229Z,0.97
2023-02-11T04:56:22.268Z,0.93
2023-02-11T05:01:24.341Z,0.90
2023-02-11T05:06:26.378Z,1.04
2023-02-11T05:11:28.283Z,1.04
2023-02-11T05:16:30.181Z,1.04
2023-02-11T05:21:32.145Z,1.02
2023-02-11T05:26:34.120Z,1.05
2023-02-11T05:31:36.052Z,1.06
2023-02-11T05:36:38.087Z,1.10
2023-02-11T05:41:40.028Z,1.10
2023-02-11T05:46:42.017Z,1.05
2023-02-11T05:51:43.959Z,1.02
2023-02-11T05:56:46.110Z,0.99
2023-02-11T06:01:48.022Z,0.94
2023-02-11T06:06:50.010Z,0.91
2023-02-11T06:11:52.015Z,0.89
2023-02-11T06:16:53.963Z,0.87
2023-02-11T06:21:56.564Z,0.86
2023-02-11T06:26:58.584Z,0.87
2023-02-11T06:32:00.553Z,0.85
2023-02-11T06:37:02.777Z,0.79
2023-02-11T06:42:07.019Z,0.80
2023-02-11T06:47:09.775Z,0.82
2023-02-11T06:52:11.671Z,0.80
2023-02-11T06:57:13.651Z,0.74
2023-02-11T07:02:15.786Z,0.76
2023-02-11T07:07:17.763Z,0.74
2023-02-11T07:12:20.063Z,0.70
2023-02-11T07:17:21.963Z,0.67
2023-02-11T07:22:23.936Z,0.70
2023-02-11T07:27:25.921Z,0.65
2023-02-11T07:32:27.786Z,0.64
2023-02-11T07:37:29.717Z,0.60
2023-02-11T07:42:31.648Z,0.63
2023-02-11T07:47:35.069Z,0.68
2023-02-11T07:52:37.074Z,0.70
2023-02-11T07:57:39.063Z,0.79
2023-02-11T08:02:40.977Z,0.87
2023-02-11T08:07:45.580Z,0.87
2023-02-11T08:12:47.977Z,0.97
2023-02-11T08:17:50.064Z,1.03
2023-02-11T08:22:51.906Z,1.16
2023-02-11T08:27:53.918Z,1.30
2023-02-11T08:32:56.761Z,1.40
2023-02-11T08:37:58.735Z,1.50
2023-02-11T08:43:00.844Z,1.67
2023-02-11T08:48:02.908Z,1.78
2023-02-11T08:53:04.882Z,1.93
2023-02-11T08:58:07.326Z,2.10
2023-02-11T09:03:09.721Z,2.20
2023-02-11T09:08:12.336Z,2.39
2023-02-11T09:13:14.553Z,2.70
2023-02-11T09:18:16.686Z,3.05
2023-02-11T09:23:18.723Z,3.39
2023-02-11T09:28:20.849Z,3.86
2023-02-11T09:33:22.812Z,5.11
2023-02-11T09:38:24.864Z,6.36
2023-02-11T09:43:46.866Z,7.52
2023-02-11T09:48:49.740Z,8.44
2023-02-11T09:53:54.667Z,8.52
2023-02-11T09:58:56.517Z,8.85
2023-02-11T10:04:19.309Z,9.23
2023-02-11T10:09:36.100Z,9.52
2023-02-11T10:14:59.385Z,10.04
2023-02-11T10:20:24.987Z,10.32
2023-02-11T10:25:28.491Z,9.59
2023-02-11T10:30:33.968Z,9.21
2023-02-11T10:35:35.858Z,9.59
2023-02-11T10:40:37.886Z,9.84
2023-02-11T10:45:44.457Z,10.82
2023-02-11T10:50:46.387Z,11.31
2023-02-11T10:55:53.900Z,11.81
2023-02-11T11:00:57.715Z,11.81
2023-02-11T11:06:02.055Z,12.13
2023-02-11T11:11:04.100Z,12.52
2023-02-11T11:16:10.395Z,11.97
2023-02-11T11:21:31.571Z,11.77
2023-02-11T11:26:42.588Z,10.95
2023-02-11T11:31:50.723Z,10.29
2023-02-11T11:36:52.789Z,9.56
2023-02-11T11:42:03.393Z,9.41
2023-02-11T11:47:20.056Z,9.21
2023-02-11T11:52:46.742Z,9.39
2023-02-11T11:57:49.345Z,8.95
2023-02-11T12:03:16.175Z,8.99
2023-02-11T12:08:33.288Z,8.93
2023-02-11T12:13:46.759Z,8.71
2023-02-11T12:19:11.392Z,8.60
2023-02-11T12:24:25.177Z,8.41
2023-02-11T12:29:29.801Z,8.57
2023-02-11T12:34:42.093Z,8.75
2023-02-11T12:40:31.390Z,8.81
2023-02-11T12:45:49.320Z,8.62
2023-02-11T12:51:00.275Z,8.82
2023-02-11T12:56:38.932Z,8.95
2023-02-11T13:01:41.558Z,9.19
2023-02-11T13:06:48.593Z,8.87
2023-02-11T13:11:52.264Z,8.78
2023-02-11T13:16:54.890Z,8.69
2023-02-11T13:22:20.516Z,8.83
2023-02-11T13:27:44.145Z,8.81
2023-02-11T13:32:55.668Z,8.92
2023-02-11T13:37:58.563Z,9.14
2023-02-11T13:43:02.052Z,9.08
2023-02-11T13:48:18.420Z,9.16
2023-02-11T13:53:20.797Z,9.23
2023-02-11T13:58:28.847Z,9.41
2023-02-11T14:03:57.521Z,9.50
2023-02-11T14:09:01.258Z,9.41
2023-02-11T14:14:12.343Z,9.39
2023-02-11T14:19:31.679Z,9.47
2023-02-11T14:24:33.653Z,9.45
2023-02-11T14:29:59.780Z,9.74
2023-02-11T14:35:22.960Z,9.92
2023-02-11T14:40:36.951Z,9.79
2023-02-11T14:45:39.552Z,9.81
2023-02-11T14:50:54.396Z,10.11
2023-02-11T14:55:56.345Z,10.16
2023-02-11T15:01:06.715Z,10.18
2023-02-11T15:06:20.763Z,10.26
2023-02-11T15:11:24.319Z,10.38
2023-02-11T15:16:27.636Z,10.35
2023-02-11T15:21:31.831Z,10.33
2023-02-11T15:26:33.956Z,10.44
2023-02-11T15:31:35.965Z,10.61
2023-02-11T15:36:38.757Z,10.61
2023-02-11T15:41:41.001Z,10.52
2023-02-11T15:46:47.513Z,10.53
2023-02-11T15:51:50.696Z,10.55
2023-02-11T15:56:55.613Z,10.50
2023-02-11T16:02:04.830Z,10.49
2023-02-11T16:07:06.838Z,10.52
2023-02-11T16:12:27.235Z,10.47
2023-02-11T16:17:29.835Z,10.43
2023-02-11T16:22:35.607Z,10.39
2023-02-11T16:27:41.727Z,10.38
2023-02-11T16:32:43.661Z,10.43
2023-02-11T16:37:45.632Z,10.33
2023-02-11T16:42:47.628Z,10.21
2023-02-11T16:47:49.744Z,10.10
2023-02-11T16:52:52.624Z,9.91
2023-02-11T16:57:55.719Z,9.81
2023-02-11T17:02:57.821Z,9.70
2023-02-11T17:08:02.553Z,9.60
2023-02-11T17:13:05.225Z,9.53
2023-02-11T17:18:07.149Z,9.43
2023-02-11T17:23:14.423Z,9.38
2023-02-11T17:28:16.545Z,9.24
2023-02-11T17:33:19.142Z,9.19
2023-02-11T17:38:20.969Z,9.09
2023-02-11T17:43:23.006Z,9.00
2023-02-11T17:48:25.101Z,8.92
2023-02-11T17:53:27.006Z,8.77
2023-02-11T17:58:28.937Z,8.69
2023-02-11T18:03:31.615Z,8.62
2023-02-11T18:08:34.767Z,8.53
2023-02-11T18:13:36.626Z,8.43
2023-02-11T18:18:38.528Z,8.37
2023-02-11T18:23:40.491Z,8.29
2023-02-11T18:28:45.588Z,8.20
2023-02-11T18:33:48.496Z,8.10
2023-02-11T18:38:52.721Z,8.05
2023-02-11T18:43:54.716Z,7.99
2023-02-11T18:48:56.605Z,7.92
2023-02-11T18:53:59.168Z,7.81
2023-02-11T18:59:01.765Z,7.75
2023-02-11T19:04:05.116Z,7.65
2023-02-11T19:09:12.528Z,7.59
2023-02-11T19:14:17.276Z,7.51
2023-02-11T19:19:19.802Z,7.41
2023-02-11T19:24:22.918Z,7.33
2023-02-11T19:29:25.413Z,7.26
2023-02-11T19:34:27.327Z,7.21
2023-02-11T19:39:29.242Z,7.13
2023-02-11T19:44:31.083Z,7.09
2023-02-11T19:49:33.315Z,7.08
2023-02-11T19:54:35.315Z,6.97
2023-02-11T19:59:37.286Z,6.75
2023-02-11T20:04:39.564Z,6.68
2023-02-11T20:09:42.594Z,6.61
2023-02-11T20:14:44.701Z,6.31
2023-02-11T20:19:46.532Z,6.20
2023-02-11T20:24:48.447Z,6.36
2023-02-11T20:29:50.506Z,6.30
2023-02-11T20:34:52.765Z,6.09
2023-02-11T20:39:54.821Z,5.98
2023-02-11T20:44:56.804Z,5.83
2023-02-11T20:49:59.142Z,5.81
2023-02-11T20:55:01.792Z,5.78
2023-02-11T21:00:04.103Z,5.81
2023-02-11T21:05:06.356Z,5.77
2023-02-11T21:10:09.503Z,5.74
2023-02-11T21:15:13.557Z,5.64
2023-02-11T21:20:15.483Z,5.56
2023-02-11T21:25:17.545Z,5.53
2023-02-11T21:30:19.737Z,5.39
2023-02-11T21:35:21.669Z,5.29
2023-02-11T21:40:27.535Z,5.27
2023-02-11T21:45:32.373Z,5.13
2023-02-11T21:50:34.402Z,5.12
2023-02-11T21:55:37.387Z,5.07
2023-02-11T22:00:39.616Z,5.04
2023-02-11T22:05:41.569Z,4.94
2023-02-11T22:10:43.458Z,4.87
2023-02-11T22:15:45.575Z,4.83
2023-02-11T22:20:58.150Z,4.78
2023-02-11T22:26:08.026Z,4.60
2023-02-11T22:31:30.261Z,4.55
2023-02-11T22:36:35.093Z,4.45
2023-02-11T22:41:41.869Z,4.30
2023-02-11T22:46:44.559Z,4.18
2023-02-11T22:51:47.199Z,4.09
2023-02-11T22:56:52.935Z,4.04
2023-02-11T23:01:54.921Z,4.01
2023-02-11T23:06:56.929Z,4.01
2023-02-11T23:11:59.008Z,3.97
2023-02-11T23:17:01.127Z,3.91
2023-02-11T23:22:04.241Z,3.95
2023-02-11T23:27:06.272Z,3.92
2023-02-11T23:32:08.335Z,3.93
2023-02-11T23:37:10.378Z,3.81
2023-02-11T23:42:12.486Z,3.91
2023-02-11T23:47:14.439Z,4.02
2023-02-11T23:52:16.845Z,4.07
2023-02-11T23:57:18.944Z,4.08
